Time;durP1;ratioP1;P1;durP2;ratioP2;P2;SDS_P1;SDS_P2;PMS_P1;PMS_P2;Temp;Humidity;BMP_temperature;BMP_pressure;BME280_temperature;BME280_humidity;BME280_pressure;Samples;Min_cycle;Max_cycle;Signal;HPM_P1;HPM_P2
2022/10/06 00:01:18;;;;;;;13.47;8.33;;;10.30;99.90;;;;;;10352090;28;20202;-85
2022/10/06 00:06:39;;;;;;;15.90;10.00;;;10.30;99.90;;;;;;10351522;28;20199;-86
2022/10/06 00:12:01;;;;;;;11.83;8.27;;;10.30;99.90;;;;;;10351663;28;20219;-86
2022/10/06 00:17:22;;;;;;;11.97;8.50;;;10.30;99.90;;;;;;10387833;28;20434;-86
2022/10/06 00:22:46;;;;;;;11.33;7.60;;;10.30;99.90;;;;;;10368462;28;20247;-86
2022/10/06 00:28:08;;;;;;;13.60;7.97;;;10.30;99.90;;;;;;10381890;28;20209;-85
2022/10/06 00:33:29;;;;;;;8.70;7.70;;;10.30;99.90;;;;;;10364722;28;20277;-84
2022/10/06 00:38:51;;;;;;;11.23;8.00;;;10.40;99.90;;;;;;10381565;28;20358;-85
2022/10/06 00:44:12;;;;;;;13.13;7.83;;;10.50;99.90;;;;;;10350757;28;20260;-85
2022/10/06 00:49:36;;;;;;;12.23;7.20;;;10.50;99.90;;;;;;10354876;28;20230;-86
2022/10/06 00:54:58;;;;;;;10.83;7.60;;;10.40;99.90;;;;;;10324628;28;20238;-85
2022/10/06 01:00:20;;;;;;;11.73;7.63;;;10.30;99.90;;;;;;10354725;28;20217;-86
2022/10/06 01:05:47;;;;;;;9.70;7.37;;;10.30;99.90;;;;;;10324864;28;20251;-86
2022/10/06 01:11:14;;;;;;;11.03;7.37;;;10.30;99.90;;;;;;10375938;28;20237;-84
2022/10/06 01:16:38;;;;;;;10.03;7.57;;;10.30;99.90;;;;;;10397348;28;20209;-86
2022/10/06 01:22:04;;;;;;;9.60;7.50;;;10.30;99.90;;;;;;10358029;28;20199;-85
2022/10/06 01:27:30;;;;;;;10.97;7.50;;;10.30;99.90;;;;;;10357876;28;20203;-85
2022/10/06 01:32:52;;;;;;;10.83;7.13;;;10.30;99.90;;;;;;10370660;28;20402;-86
2022/10/06 01:38:16;;;;;;;10.87;7.63;;;10.30;99.90;;;;;;10357376;28;20409;-85
2022/10/06 01:43:39;;;;;;;9.70;7.17;;;10.20;99.90;;;;;;10356994;28;20249;-86
2022/10/06 01:49:01;;;;;;;11.33;8.10;;;10.30;99.90;;;;;;10400515;28;20212;-83
2022/10/06 01:54:22;;;;;;;11.03;7.97;;;10.30;99.90;;;;;;10386210;28;20270;-85
2022/10/06 01:59:43;;;;;;;9.90;7.60;;;10.40;99.90;;;;;;10383334;28;20198;-83
2022/10/06 02:05:05;;;;;;;8.30;6.80;;;10.40;99.90;;;;;;10383019;28;20223;-84
2022/10/06 02:10:29;;;;;;;12.37;8.73;;;10.40;99.90;;;;;;10382651;28;20289;-84
2022/10/06 02:15:58;;;;;;;11.00;8.70;;;10.40;99.90;;;;;;10381581;28;20382;-84
2022/10/06 02:21:22;;;;;;;13.23;8.57;;;10.30;99.90;;;;;;10384194;28;20490;-87
2022/10/06 02:26:43;;;;;;;13.07;7.67;;;10.30;99.90;;;;;;10368765;28;20192;-84
2022/10/06 02:32:04;;;;;;;9.37;7.07;;;10.40;99.90;;;;;;10368317;28;20230;-84
2022/10/06 02:37:26;;;;;;;10.30;7.90;;;10.50;99.90;;;;;;10368594;28;20197;-84
2022/10/06 02:42:47;;;;;;;8.63;6.90;;;10.60;99.90;;;;;;10367692;28;20250;-87
2022/10/06 02:48:13;;;;;;;8.23;7.10;;;10.70;99.90;;;;;;10381124;28;20203;-84
2022/10/06 02:53:35;;;;;;;10.10;7.27;;;10.70;99.90;;;;;;10380724;28;20247;-84
2022/10/06 02:58:57;;;;;;;14.70;8.23;;;10.70;99.90;;;;;;10380731;28;20324;-84
2022/10/06 03:04:25;;;;;;;15.70;7.63;;;10.60;99.90;;;;;;10395164;28;20205;-86
2022/10/06 03:09:46;;;;;;;10.73;7.70;;;10.60;99.90;;;;;;10353747;28;20225;-84
2022/10/06 03:15:08;;;;;;;11.77;8.47;;;10.50;99.90;;;;;;10410620;28;20234;-84
2022/10/06 03:20:30;;;;;;;20.10;8.13;;;10.50;99.90;;;;;;10352921;28;20235;-84
2022/10/06 03:25:55;;;;;;;11.03;7.10;;;10.50;99.90;;;;;;10393807;28;20201;-84
2022/10/06 03:31:17;;;;;;;11.80;8.43;;;10.50;99.90;;;;;;10366556;28;20246;-84
2022/10/06 03:36:40;;;;;;;9.30;7.20;;;10.60;99.90;;;;;;10366235;28;20205;-84
2022/10/06 03:42:01;;;;;;;10.20;7.20;;;10.80;99.90;;;;;;10381813;28;20196;-85
2022/10/06 03:47:23;;;;;;;8.37;6.23;;;10.90;99.90;;;;;;10368633;28;20208;-85
2022/10/06 03:52:45;;;;;;;9.77;6.60;;;11.10;99.90;;;;;;10364859;28;20250;-86
2022/10/06 03:58:08;;;;;;;7.53;5.47;;;11.30;99.90;;;;;;10378581;28;20258;-85
2022/10/06 04:03:30;;;;;;;6.87;5.50;;;11.40;99.90;;;;;;10378972;28;20210;-85
2022/10/06 04:08:52;;;;;;;7.63;5.47;;;11.50;99.90;;;;;;10378618;28;20202;-85
2022/10/06 04:14:15;;;;;;;6.73;5.27;;;11.60;99.90;;;;;;10351499;28;20209;-86
2022/10/06 04:19:38;;;;;;;6.50;5.40;;;11.70;99.90;;;;;;10381853;28;20243;-85
2022/10/06 04:25:00;;;;;;;7.83;5.53;;;11.80;99.90;;;;;;10356679;28;20344;-85
2022/10/06 04:30:22;;;;;;;7.73;5.67;;;11.80;99.90;;;;;;10338146;28;20300;-87
2022/10/06 04:35:43;;;;;;;7.87;5.67;;;11.80;99.90;;;;;;10338117;28;20200;-87
2022/10/06 04:41:07;;;;;;;9.50;5.20;;;11.90;99.90;;;;;;10356664;28;20393;-87
2022/10/06 04:46:30;;;;;;;10.63;5.40;;;11.90;99.90;;;;;;10356836;28;20217;-86
2022/10/06 04:52:08;;;;;;;5.27;4.77;;;12.10;99.90;;;;;;10354462;28;20311;-85
2022/10/06 04:57:31;;;;;;;8.97;4.73;;;12.00;99.90;;;;;;10402684;28;20209;-88
2022/10/06 05:02:54;;;;;;;7.40;4.73;;;12.00;99.90;;;;;;10385992;28;20205;-85
2022/10/06 05:08:16;;;;;;;15.90;4.93;;;12.10;99.90;;;;;;10401773;28;20200;-86
2022/10/06 05:13:38;;;;;;;6.37;4.07;;;12.20;99.90;;;;;;10384863;28;20420;-84
2022/10/06 05:19:01;;;;;;;6.57;4.03;;;12.20;99.90;;;;;;10398794;28;20206;-86
2022/10/06 05:24:24;;;;;;;7.03;4.60;;;12.10;99.90;;;;;;10355050;28;20266;-86
2022/10/06 05:29:46;;;;;;;5.53;4.50;;;12.00;99.90;;;;;;10361047;28;20244;-85
2022/10/06 05:35:08;;;;;;;5.77;4.70;;;12.00;99.90;;;;;;10344424;28;20207;-85
2022/10/06 05:40:30;;;;;;;7.53;5.20;;;12.10;99.90;;;;;;10359946;28;20431;-85
2022/10/06 05:45:56;;;;;;;7.00;5.07;;;12.10;99.90;;;;;;10343734;28;20488;-86
2022/10/06 05:51:20;;;;;;;9.60;5.23;;;12.20;99.90;;;;;;10378476;28;20241;-85
2022/10/06 05:56:42;;;;;;;7.23;5.43;;;12.30;99.90;;;;;;10379418;28;20186;-86
2022/10/06 06:02:04;;;;;;;5.00;4.50;;;12.50;99.90;;;;;;10357493;28;20210;-86
2022/10/06 06:07:32;;;;;;;5.80;4.63;;;12.80;99.90;;;;;;10388211;28;20435;-85
2022/10/06 06:12:54;;;;;;;6.83;4.57;;;12.90;99.90;;;;;;10358636;28;20233;-86
2022/10/06 06:18:35;;;;;;;6.60;3.93;;;13.00;99.90;;;;;;10382197;28;20412;-85
2022/10/06 06:23:58;;;;;;;4.87;3.80;;;13.10;99.90;;;;;;10358017;28;20392;-85
2022/10/06 06:29:19;;;;;;;7.40;4.40;;;13.20;99.90;;;;;;10351545;28;20211;-86
2022/10/06 06:34:41;;;;;;;5.77;3.20;;;13.20;99.90;;;;;;10384803;28;20403;-85
2022/10/06 06:40:03;;;;;;;8.53;4.57;;;13.30;99.90;;;;;;10384636;28;20201;-89
2022/10/06 06:45:29;;;;;;;4.90;3.27;;;13.30;99.90;;;;;;10381433;28;20198;-87
2022/10/06 06:51:04;;;;;;;6.57;4.10;;;13.40;99.90;;;;;;10397027;28;20260;-88
2022/10/06 06:56:25;;;;;;;7.10;2.70;;;13.50;99.90;;;;;;10370062;28;20202;-88
2022/10/06 07:01:47;;;;;;;4.83;3.20;;;13.70;99.90;;;;;;10367327;28;20437;-88
2022/10/06 07:07:13;;;;;;;4.87;3.40;;;14.00;99.90;;;;;;10396763;28;20272;-88
2022/10/06 07:12:34;;;;;;;4.82;2.67;;;15.10;1.00;;;;;;10367359;28;20232;-85
2022/10/06 07:29:16;;;;;;;5.03;3.28;;;16.50;99.90;;;;;;10349184;28;20204;-88
2022/10/06 07:34:40;;;;;;;4.43;2.08;;;16.80;91.60;;;;;;10339472;28;20244;-82
2022/10/06 07:40:03;;;;;;;3.08;1.90;;;16.90;99.90;;;;;;10377183;28;20231;-81
2022/10/06 07:45:45;;;;;;;6.07;1.75;;;17.80;99.90;;;;;;10381234;28;20561;-82
2022/10/06 07:51:26;;;;;;;3.35;1.48;;;18.00;99.90;;;;;;10395578;28;20259;-83
2022/10/06 07:56:50;;;;;;;3.10;1.63;;;17.90;99.90;;;;;;10357105;28;20246;-82
2022/10/06 08:02:12;;;;;;;3.50;1.25;;;18.10;98.20;;;;;;10360267;28;20251;-82
2022/10/06 08:07:34;;;;;;;2.63;1.30;;;18.10;96.30;;;;;;10360531;28;20234;-82
2022/10/06 08:12:55;;;;;;;5.15;1.75;;;17.10;98.40;;;;;;10363383;28;20263;-83
2022/10/06 08:18:17;;;;;;;4.80;1.75;;;17.50;96.30;;;;;;10358962;28;20315;-80
2022/10/06 08:23:48;;;;;;;2.65;1.10;;;17.90;94.80;;;;;;10384384;28;20236;-82
2022/10/06 08:29:10;;;;;;;2.78;1.08;;;18.70;90.40;;;;;;10376440;28;20256;-85
2022/10/06 08:34:31;;;;;;;2.58;0.90;;;20.00;87.90;;;;;;10379265;28;20268;-86
2022/10/06 08:39:54;;;;;;;4.55;1.00;;;19.40;88.20;;;;;;10383017;28;20208;-85
2022/10/06 08:45:35;;;;;;;5.70;1.38;;;17.90;94.60;;;;;;10371710;28;20211;-83
2022/10/06 08:51:42;;;;;;;1.30;0.75;;;17.50;91.30;;;;;;10366824;28;20258;-85
2022/10/06 08:57:59;;;;;;;4.40;0.88;;;17.90;89.00;;;;;;10385721;28;20204;-80
2022/10/06 09:03:26;;;;;;;3.42;1.02;;;17.40;87.40;;;;;;10191565;29;20239;-84
2022/10/06 09:08:55;;;;;;;5.35;1.23;;;16.80;85.50;;;;;;10193853;29;20227;-82
2022/10/06 09:14:27;;;;;;;7.18;1.08;;;16.80;86.00;;;;;;10193806;29;20831;-83
2022/10/06 09:20:01;;;;;;;5.05;0.80;;;17.30;83.40;;;;;;10180273;29;20228;-84
2022/10/06 09:25:27;;;;;;;7.10;1.50;;;18.20;74.60;;;;;;10177788;29;20440;-86
2022/10/06 09:30:48;;;;;;;3.80;1.02;;;19.50;51.50;;;;;;10198983;29;20247;-83
2022/10/06 09:36:12;;;;;;;3.72;1.10;;;20.20;50.10;;;;;;10250548;28;20205;-81
2022/10/06 09:41:44;;;;;;;5.97;1.25;;;21.40;35.50;;;;;;10340194;28;20206;-85
2022/10/06 09:47:22;;;;;;;6.45;1.38;;;21.50;30.50;;;;;;10354530;28;20223;-82
2022/10/06 09:53:03;;;;;;;6.00;1.15;;;;;;;;;;10349555;28;20299;-83
2022/10/06 09:58:36;;;;;;;4.28;1.98;;;22.10;24.50;;;;;;10368675;28;20284;-85
2022/10/06 10:04:05;;;;;;;4.90;1.23;;;20.80;26.60;;;;;;10379659;28;20512;-83
2022/10/06 10:09:42;;;;;;;9.00;1.13;;;20.80;28.20;;;;;;10375580;28;20208;-86
2022/10/06 10:15:30;;;;;;;6.95;1.83;;;21.40;26.00;;;;;;10407462;28;20197;-86
2022/10/06 10:20:54;;;;;;;6.32;1.13;;;21.60;24.10;;;;;;10373673;28;20217;-87
2022/10/06 10:26:57;;;;;;;6.65;1.60;;;21.90;21.60;;;;;;10392414;28;20268;-88
2022/10/06 10:32:37;;;;;;;4.38;1.20;;;21.70;21.50;;;;;;10201865;29;20243;-85
2022/10/06 10:38:14;;;;;;;5.85;2.55;;;20.50;23.20;;;;;;10204978;29;20237;-83
2022/10/06 10:43:48;;;;;;;7.88;1.65;;;19.10;27.40;;;;;;10177767;29;20213;-83
2022/10/06 10:49:19;;;;;;;10.68;1.58;;;18.30;33.40;;;;;;10162382;29;20225;-84
2022/10/06 10:54:46;;;;;;;4.30;1.75;;;17.50;40.10;;;;;;10174018;29;20255;-84
2022/10/06 11:00:19;;;;;;;6.57;1.65;;;17.90;41.10;;;;;;10160541;29;20533;-87
2022/10/06 11:06:06;;;;;;;10.18;1.38;;;19.80;33.00;;;;;;10235018;28;20210;-91
2022/10/06 11:12:12;;;;;;;4.18;1.45;;;21.30;21.60;;;;;;10342243;28;20241;-90
2022/10/06 11:17:45;;;;;;;5.65;1.17;;;23.30;14.50;;;;;;10366297;28;20224;-85
2022/10/06 11:23:31;;;;;;;13.68;1.80;;;23.60;14.70;;;;;;10385961;28;20268;-83
2022/10/06 11:29:11;;;;;;;6.85;1.77;;;23.90;12.80;;;;;;10377031;28;20376;-84
2022/10/06 11:34:32;;;;;;;4.25;1.23;;;23.50;13.30;;;;;;10363398;28;20270;-83
2022/10/06 11:39:58;;;;;;;7.57;1.42;;;23.20;14.80;;;;;;10376826;28;20196;-85
2022/10/06 11:45:42;;;;;;;9.43;1.58;;;23.30;13.40;;;;;;10359587;28;20400;-84
2022/10/06 11:51:22;;;;;;;9.80;2.03;;;23.10;13.90;;;;;;10347859;28;20327;-85
2022/10/06 11:56:44;;;;;;;4.78;1.45;;;23.10;13.10;;;;;;10360614;28;20212;-87
2022/10/06 12:02:29;;;;;;;7.32;2.05;;;23.30;12.90;;;;;;10348677;28;20267;-85
2022/10/06 12:07:54;;;;;;;7.07;1.30;;;23.70;12.10;;;;;;10409497;28;20227;-86
2022/10/06 12:13:27;;;;;;;21.73;2.65;;;24.20;11.40;;;;;;10373827;28;20300;-88
2022/10/06 12:19:18;;;;;;;4.53;1.27;;;23.60;12.50;;;;;;10371905;28;20209;-83
2022/10/06 12:25:27;;;;;;;3.15;1.17;;;23.30;12.10;;;;;;10374946;28;20240;-84
2022/10/06 12:31:04;;;;;;;6.03;1.90;;;23.20;12.20;;;;;;10172057;29;20280;-85
2022/10/06 12:36:30;;;;;;;15.05;2.05;;;23.10;12.20;;;;;;10209848;29;20251;-86
2022/10/06 12:42:06;;;;;;;9.20;3.30;;;22.80;13.20;;;;;;10211783;29;20216;-86
2022/10/06 12:47:36;;;;;;;9.85;1.73;;;23.30;13.60;;;;;;10199300;29;20222;-89
2022/10/06 12:53:07;;;;;;;2.78;1.02;;;23.50;12.20;;;;;;10171397;29;20617;-82
2022/10/06 12:58:31;;;;;;;5.53;1.42;;;23.00;12.40;;;;;;10207133;29;20264;-86
2022/10/06 13:03:53;;;;;;;6.57;1.60;;;22.70;14.00;;;;;;10220524;28;20221;-82
2022/10/06 13:09:14;;;;;;;7.40;1.73;;;22.70;14.40;;;;;;10388452;28;20193;-80
2022/10/06 13:14:36;;;;;;;5.35;1.65;;;23.30;13.80;;;;;;10358772;28;20278;-84
2022/10/06 13:19:57;;;;;;;8.57;1.70;;;23.70;12.90;;;;;;10383351;28;20267;-85
2022/10/06 13:25:18;;;;;;;5.47;1.95;;;24.10;11.80;;;;;;10382341;28;20262;-81
2022/10/06 13:30:40;;;;;;;9.23;1.88;;;23.70;11.60;;;;;;10381943;28;20683;-83
2022/10/06 13:36:01;;;;;;;7.78;1.85;;;23.10;12.20;;;;;;10381389;28;20204;-83
2022/10/06 13:41:30;;;;;;;7.28;1.60;;;22.50;13.80;;;;;;10383729;28;20284;-82
2022/10/06 13:46:58;;;;;;;5.35;1.88;;;22.40;13.90;;;;;;10380386;28;20201;-83
2022/10/06 13:52:42;;;;;;;4.85;1.15;;;22.50;14.00;;;;;;10376578;28;20247;-84
2022/10/06 13:58:08;;;;;;;6.57;1.70;;;22.50;14.20;;;;;;10391924;28;20372;-86
2022/10/06 14:03:34;;;;;;;12.82;2.15;;;22.10;14.40;;;;;;10378837;28;20220;-88
2022/10/06 14:09:12;;;;;;;5.53;1.40;;;21.10;16.20;;;;;;10400400;28;20208;-86
2022/10/06 14:14:33;;;;;;;6.55;1.58;;;19.80;17.20;;;;;;10393022;28;20316;-85
2022/10/06 14:19:54;;;;;;;5.80;1.50;;;18.80;19.10;;;;;;10367230;28;20211;-87
2022/10/06 14:25:15;;;;;;;13.20;3.60;;;18.30;21.40;;;;;;10372062;28;20197;-83
2022/10/06 14:30:37;;;;;;;9.48;1.90;;;18.10;23.70;;;;;;10368187;28;20257;-82
2022/10/06 14:35:58;;;;;;;9.63;2.15;;;17.80;25.20;;;;;;10384365;28;20234;-83
2022/10/06 14:41:26;;;;;;;9.13;2.17;;;17.50;27.70;;;;;;10378158;28;20381;-86
2022/10/06 14:46:48;;;;;;;6.53;1.75;;;17.40;31.80;;;;;;10366368;28;20589;-82
2022/10/06 14:52:10;;;;;;;8.23;1.58;;;17.20;34.50;;;;;;10352266;28;20629;-81
2022/10/06 14:57:34;;;;;;;4.97;1.52;;;17.10;37.40;;;;;;10391128;28;20211;-83
2022/10/06 15:02:55;;;;;;;5.90;1.60;;;16.90;40.50;;;;;;10391970;28;20202;-90
2022/10/06 15:08:17;;;;;;;7.05;1.70;;;16.80;42.70;;;;;;10382643;28;20227;-85
2022/10/06 15:13:40;;;;;;;8.40;1.70;;;16.70;43.30;;;;;;10394247;28;20243;-83
2022/10/06 15:19:04;;;;;;;9.13;1.60;;;16.50;43.00;;;;;;10372672;28;20206;-86
2022/10/06 15:24:25;;;;;;;7.45;1.75;;;14.90;43.30;;;;;;10367206;28;20186;-84
2022/10/06 15:29:46;;;;;;;7.20;1.90;;;16.40;46.40;;;;;;10364283;28;20202;-85
2022/10/06 15:35:08;;;;;;;6.03;1.73;;;16.00;45.70;;;;;;10370813;28;20240;-86
2022/10/06 15:40:30;;;;;;;9.77;1.70;;;;;;;;;;10352330;28;20211;-85
2022/10/06 15:45:54;;;;;;;5.40;1.83;;;15.00;68.30;;;;;;10366388;28;20217;-85
2022/10/06 15:51:17;;;;;;;7.68;2.72;;;15.60;55.20;;;;;;10365526;28;20244;-85
2022/10/06 15:56:38;;;;;;;7.33;1.93;;;15.40;59.40;;;;;;10366526;28;20221;-85
2022/10/06 16:02:07;;;;;;;6.20;2.25;;;15.30;63.50;;;;;;10369371;28;20330;-87
2022/10/06 16:07:31;;;;;;;9.82;2.30;;;15.10;70.30;;;;;;10356458;28;20254;-86
2022/10/06 16:12:52;;;;;;;12.65;2.30;;;15.00;73.50;;;;;;10352253;28;20232;-86
2022/10/06 16:18:14;;;;;;;9.97;2.17;;;14.90;76.40;;;;;;10365342;28;20207;-86
2022/10/06 16:23:35;;;;;;;8.98;2.35;;;14.70;79.30;;;;;;10383134;28;20195;-85
2022/10/06 16:28:57;;;;;;;6.60;2.40;;;14.60;82.50;;;;;;10365795;28;20212;-85
2022/10/06 16:34:18;;;;;;;12.53;3.17;;;14.50;86.50;;;;;;10381648;28;20230;-85
2022/10/06 16:39:40;;;;;;;8.13;2.78;;;14.40;87.40;;;;;;10368225;28;20198;-85
2022/10/06 16:45:01;;;;;;;7.27;2.70;;;14.30;90.10;;;;;;10371230;28;20196;-86
2022/10/06 16:50:23;;;;;;;8.60;3.10;;;14.20;90.80;;;;;;10374064;28;20219;-85
2022/10/06 16:55:45;;;;;;;8.67;3.83;;;14.10;91.40;;;;;;10378969;28;20405;-84
2022/10/06 17:01:08;;;;;;;11.70;5.10;;;14.00;92.00;;;;;;10364641;28;20225;-85
2022/10/06 17:06:34;;;;;;;13.85;6.00;;;14.00;93.20;;;;;;10380472;28;20196;-85
2022/10/06 17:11:57;;;;;;;15.00;5.77;;;13.90;93.60;;;;;;10354042;28;20231;-85
2022/10/06 17:17:19;;;;;;;9.60;4.93;;;13.80;94.10;;;;;;10385104;28;20278;-85
2022/10/06 17:22:43;;;;;;;23.53;14.20;;;13.70;94.10;;;;;;10363120;28;20211;-86
2022/10/06 17:28:05;;;;;;;77.93;39.70;;;13.60;92.70;;;;;;10385972;28;20202;-85
2022/10/06 17:33:33;;;;;;;73.23;36.77;;;13.40;99.90;;;;;;10385207;28;20302;-84
2022/10/06 17:39:00;;;;;;;70.53;37.20;;;13.30;1.00;;;;;;10384708;28;20507;-85
2022/10/06 17:44:25;;;;;;;62.73;33.63;;;13.20;1.00;;;;;;10401328;28;20199;-86
2022/10/06 17:49:46;;;;;;;65.73;33.57;;;13.10;1.00;;;;;;10384501;28;20200;-85
2022/10/06 17:55:08;;;;;;;101.10;52.47;;;13.00;1.00;;;;;;10370029;28;20495;-84
2022/10/06 18:00:30;;;;;;;99.27;55.23;;;12.90;1.00;;;;;;10356402;28;20198;-84
2022/10/06 18:05:57;;;;;;;66.83;40.20;;;12.70;1.00;;;;;;10357700;28;20200;-85
2022/10/06 18:16:57;;;;;;;66.30;38.57;;;12.60;1.00;;;;;;10357472;28;20274;-84
2022/10/06 18:22:18;;;;;;;56.20;33.17;;;12.40;1.00;;;;;;10372130;28;20205;-85
2022/10/06 18:27:39;;;;;;;39.80;23.83;;;;;;;;;;10368735;28;20203;-84
2022/10/06 18:33:01;;;;;;;36.27;18.53;;;12.60;1.00;;;;;;10382333;28;20230;-84
2022/10/06 18:38:44;;;;;;;31.47;15.20;;;12.60;1.00;;;;;;10371219;28;20199;-84
2022/10/06 18:44:07;;;;;;;25.63;13.47;;;12.40;1.00;;;;;;10361703;28;20199;-85
2022/10/06 18:49:29;;;;;;;29.03;12.10;;;12.30;1.00;;;;;;10388003;28;20266;-85
2022/10/06 18:54:50;;;;;;;26.50;12.13;;;12.30;1.00;;;;;;10416239;28;20247;-85
2022/10/06 19:00:12;;;;;;;27.60;12.63;;;12.30;1.00;;;;;;10387487;28;20199;-84
2022/10/06 19:05:34;;;;;;;26.30;10.87;;;12.30;1.00;;;;;;10394969;28;20209;-84
2022/10/06 19:16:36;;;;;;;16.73;6.53;;;12.20;1.00;;;;;;10368265;28;20218;-84
2022/10/06 19:22:02;;;;;;;17.57;8.63;;;12.20;1.00;;;;;;10381555;28;20198;-85
2022/10/06 19:27:24;;;;;;;17.67;8.90;;;12.10;1.00;;;;;;10367048;28;20204;-83
2022/10/06 19:32:49;;;;;;;30.40;15.17;;;12.10;1.00;;;;;;10383618;28;20248;-84
2022/10/06 19:38:15;;;;;;;28.90;13.20;;;;;;;;;;10366399;28;20210;-84
2022/10/06 19:43:38;;;;;;;37.73;13.10;;;;;;;;;;10380072;28;20272;-84
2022/10/06 19:49:04;;;;;;;20.27;9.43;;;;;;;;;;10352768;28;20218;-84
2022/10/06 19:54:26;;;;;;;20.37;7.20;;;11.70;1.00;;;;;;10353223;28;20247;-84
2022/10/06 19:59:49;;;;;;;18.73;7.03;;;11.60;1.00;;;;;;10367381;28;20196;-84
2022/10/06 20:05:15;;;;;;;18.53;7.73;;;11.60;1.00;;;;;;10369839;28;20375;-84
2022/10/06 20:10:37;;;;;;;17.90;6.10;;;11.70;1.00;;;;;;10352391;28;20276;-85
2022/10/06 20:16:02;;;;;;;18.67;6.80;;;11.70;1.00;;;;;;10365798;28;20212;-84
2022/10/06 20:21:30;;;;;;;12.67;6.17;;;11.60;1.00;;;;;;10386102;28;20459;-84
2022/10/06 20:26:52;;;;;;;17.47;5.67;;;11.60;1.00;;;;;;10360794;28;20199;-85
2022/10/06 20:32:13;;;;;;;12.87;5.30;;;11.50;1.00;;;;;;10390337;28;20292;-84
2022/10/06 20:37:37;;;;;;;13.30;5.70;;;11.60;1.00;;;;;;10373343;28;20277;-84
2022/10/06 20:42:59;;;;;;;13.00;5.90;;;11.40;1.00;;;;;;10373408;28;20245;-84
2022/10/06 20:48:21;;;;;;;20.03;6.53;;;11.40;1.00;;;;;;10373855;28;20205;-85
2022/10/06 20:53:42;;;;;;;12.67;5.07;;;11.40;1.00;;;;;;10386453;28;20233;-83
2022/10/06 20:59:08;;;;;;;10.20;3.70;;;11.40;1.00;;;;;;10400069;28;20225;-85
2022/10/06 21:04:30;;;;;;;12.63;4.43;;;11.40;1.00;;;;;;10388495;28;20489;-85
2022/10/06 21:09:51;;;;;;;12.80;4.43;;;11.20;1.00;;;;;;10413918;28;20388;-84
2022/10/06 21:15:12;;;;;;;12.60;4.33;;;11.20;1.00;;;;;;10418111;28;20233;-83
2022/10/06 21:20:34;;;;;;;17.73;5.03;;;11.10;1.00;;;;;;10398779;28;20203;-84
2022/10/06 21:25:55;;;;;;;16.20;5.03;;;11.10;1.00;;;;;;10370187;28;20240;-84
2022/10/06 21:31:20;;;;;;;20.33;5.60;;;11.00;1.00;;;;;;10344129;28;20213;-84
2022/10/06 21:36:43;;;;;;;11.03;4.30;;;10.90;1.00;;;;;;10359314;28;20217;-84
2022/10/06 21:42:04;;;;;;;11.80;4.07;;;10.90;1.00;;;;;;10360702;28;20199;-85
2022/10/06 21:47:25;;;;;;;19.93;5.63;;;10.90;1.00;;;;;;10343817;28;20504;-84
2022/10/06 21:52:47;;;;;;;13.50;5.53;;;10.90;1.00;;;;;;10392613;28;20607;-84
2022/10/06 21:58:08;;;;;;;13.73;5.00;;;10.90;1.00;;;;;;10373158;28;20434;-85
2022/10/06 22:03:33;;;;;;;14.20;5.40;;;10.80;25.70;;;;;;10356856;28;20207;-84
2022/10/06 22:08:56;;;;;;;19.23;6.30;;;11.00;99.90;;;;;;10356582;28;20486;-85
2022/10/06 22:14:19;;;;;;;12.57;5.73;;;10.90;43.60;;;;;;10355778;28;20459;-85
2022/10/06 22:19:40;;;;;;;14.03;5.47;;;10.90;33.50;;;;;;10380933;28;20204;-85
2022/10/06 22:25:02;;;;;;;19.00;7.57;;;10.90;1.00;;;;;;10355563;28;20195;-84
2022/10/06 22:30:23;;;;;;;13.90;5.03;;;10.90;1.00;;;;;;10368909;28;20204;-85
2022/10/06 22:35:50;;;;;;;14.80;5.37;;;10.90;31.70;;;;;;10368734;28;20228;-84
2022/10/06 22:41:13;;;;;;;10.60;4.80;;;10.80;93.40;;;;;;10368544;28;20586;-84
2022/10/06 22:46:36;;;;;;;11.33;4.20;;;10.70;99.90;;;;;;10367791;28;20204;-84
2022/10/06 22:51:58;;;;;;;10.13;4.23;;;;;;;;;;10368009;28;20282;-84
2022/10/06 22:57:19;;;;;;;14.37;4.13;;;10.30;99.90;;;;;;10367938;28;20255;-83
2022/10/06 23:02:41;;;;;;;13.40;5.30;;;;;;;;;;10367581;28;20277;-84
2022/10/06 23:08:03;;;;;;;11.30;4.57;;;;;;;;;;10354200;28;20200;-84
2022/10/06 23:13:29;;;;;;;6.87;2.90;;;10.20;1.00;;;;;;10367246;28;20231;-84
2022/10/06 23:18:51;;;;;;;6.90;3.60;;;;;;;;;;10387202;28;20255;-83
2022/10/06 23:24:12;;;;;;;4.27;2.73;;;10.00;1.00;;;;;;10366901;28;20202;-84
2022/10/06 23:29:34;;;;;;;8.17;3.20;;;9.80;1.00;;;;;;10383323;28;20232;-84
2022/10/06 23:34:55;;;;;;;4.33;3.17;;;9.60;99.90;;;;;;10367270;28;20222;-83
2022/10/06 23:40:16;;;;;;;8.70;3.23;;;;;;;;;;10374708;28;20198;-84
2022/10/06 23:45:38;;;;;;;9.70;2.93;;;;;;;;;;10368789;28;20217;-84
2022/10/06 23:51:02;;;;;;;9.20;4.47;;;;;;;;;;10365780;28;20222;-84
2022/10/06 23:56:24;;;;;;;11.57;5.37;;;9.70;1.00;;;;;;10365878;28;20243;-84
